sensor_id;sensor_type;location;lat;lon;timestamp;P1;durP1;ratioP1;P2;durP2;ratioP2
19863;SDS011;10094;48.820;9.226;2023-09-19T00:01:51;3.70;;;1.50;;
19863;SDS011;10094;48.820;9.226;2023-09-19T00:08:33;2.88;;;1.38;;
19863;SDS011;10094;48.820;9.226;2023-09-19T00:15:15;1.77;;;1.30;;
19863;SDS011;10094;48.820;9.226;2023-09-19T00:21:58;2.00;;;1.30;;
19863;SDS011;10094;48.820;9.226;2023-09-19T00:28:41;2.85;;;1.40;;
19863;SDS011;10094;48.820;9.226;2023-09-19T00:35:24;2.75;;;1.30;;
19863;SDS011;10094;48.820;9.226;2023-09-19T00:42:06;1.45;;;1.00;;
19863;SDS011;10094;48.820;9.226;2023-09-19T00:48:49;1.23;;;1.13;;
19863;SDS011;10094;48.820;9.226;2023-09-19T00:55:31;1.20;;;1.00;;
19863;SDS011;10094;48.820;9.226;2023-09-19T01:02:14;1.15;;;0.95;;
19863;SDS011;10094;48.820;9.226;2023-09-19T01:08:57;1.92;;;1.30;;
19863;SDS011;10094;48.820;9.226;2023-09-19T01:15:43;1.90;;;1.20;;
19863;SDS011;10094;48.820;9.226;2023-09-19T01:22:32;1.55;;;1.30;;
19863;SDS011;10094;48.820;9.226;2023-09-19T01:29:27;3.30;;;1.33;;
19863;SDS011;10094;48.820;9.226;2023-09-19T01:36:15;1.55;;;1.27;;
19863;SDS011;10094;48.820;9.226;2023-09-19T01:43:17;2.72;;;1.35;;
19863;SDS011;10094;48.820;9.226;2023-09-19T01:50:17;2.45;;;1.13;;
19863;SDS011;10094;48.820;9.226;2023-09-19T01:57:15;4.53;;;1.13;;
19863;SDS011;10094;48.820;9.226;2023-09-19T02:03:59;1.77;;;1.02;;
19863;SDS011;10094;48.820;9.226;2023-09-19T02:10:41;1.95;;;1.10;;
19863;SDS011;10094;48.820;9.226;2023-09-19T02:17:23;1.73;;;1.23;;
19863;SDS011;10094;48.820;9.226;2023-09-19T02:24:07;2.92;;;1.40;;
19863;SDS011;10094;48.820;9.226;2023-09-19T02:30:54;2.05;;;1.20;;
19863;SDS011;10094;48.820;9.226;2023-09-19T02:37:37;1.90;;;1.15;;
19863;SDS011;10094;48.820;9.226;2023-09-19T02:44:19;1.58;;;1.17;;
19863;SDS011;10094;48.820;9.226;2023-09-19T02:51:01;2.25;;;1.33;;
19863;SDS011;10094;48.820;9.226;2023-09-19T02:57:50;1.20;;;0.98;;
19863;SDS011;10094;48.820;9.226;2023-09-19T03:04:33;4.50;;;1.40;;
19863;SDS011;10094;48.820;9.226;2023-09-19T03:11:16;2.40;;;1.30;;
19863;SDS011;10094;48.820;9.226;2023-09-19T03:18:06;1.58;;;1.17;;
19863;SDS011;10094;48.820;9.226;2023-09-19T03:24:48;2.10;;;1.25;;
19863;SDS011;10094;48.820;9.226;2023-09-19T03:31:31;1.65;;;1.20;;
19863;SDS011;10094;48.820;9.226;2023-09-19T03:38:13;3.08;;;1.33;;
19863;SDS011;10094;48.820;9.226;2023-09-19T03:44:55;2.55;;;1.38;;
19863;SDS011;10094;48.820;9.226;2023-09-19T03:51:38;1.75;;;1.00;;
19863;SDS011;10094;48.820;9.226;2023-09-19T03:58:22;1.85;;;1.20;;
19863;SDS011;10094;48.820;9.226;2023-09-19T04:05:05;3.08;;;1.50;;
19863;SDS011;10094;48.820;9.226;2023-09-19T04:11:47;3.90;;;1.65;;
19863;SDS011;10094;48.820;9.226;2023-09-19T04:18:32;4.20;;;1.70;;
19863;SDS011;10094;48.820;9.226;2023-09-19T04:25:18;3.40;;;1.58;;
19863;SDS011;10094;48.820;9.226;2023-09-19T04:32:01;3.05;;;1.40;;
19863;SDS011;10094;48.820;9.226;2023-09-19T04:38:46;3.42;;;1.60;;
19863;SDS011;10094;48.820;9.226;2023-09-19T04:45:29;2.17;;;1.63;;
19863;SDS011;10094;48.820;9.226;2023-09-19T04:52:11;2.03;;;1.40;;
19863;SDS011;10094;48.820;9.226;2023-09-19T04:58:56;2.70;;;1.63;;
19863;SDS011;10094;48.820;9.226;2023-09-19T05:05:39;4.88;;;1.90;;
19863;SDS011;10094;48.820;9.226;2023-09-19T05:12:23;2.65;;;1.80;;
19863;SDS011;10094;48.820;9.226;2023-09-19T05:19:30;2.40;;;1.60;;
19863;SDS011;10094;48.820;9.226;2023-09-19T05:26:12;3.50;;;1.85;;
19863;SDS011;10094;48.820;9.226;2023-09-19T05:32:57;2.42;;;2.00;;
19863;SDS011;10094;48.820;9.226;2023-09-19T05:39:39;2.83;;;1.75;;
19863;SDS011;10094;48.820;9.226;2023-09-19T05:46:21;1.92;;;1.50;;
19863;SDS011;10094;48.820;9.226;2023-09-19T05:53:03;2.67;;;1.73;;
19863;SDS011;10094;48.820;9.226;2023-09-19T05:59:45;4.93;;;2.22;;
19863;SDS011;10094;48.820;9.226;2023-09-19T06:06:28;2.95;;;1.58;;
19863;SDS011;10094;48.820;9.226;2023-09-19T06:13:11;3.67;;;1.70;;
19863;SDS011;10094;48.820;9.226;2023-09-19T06:19:53;3.42;;;1.70;;
19863;SDS011;10094;48.820;9.226;2023-09-19T06:26:37;3.60;;;2.28;;
19863;SDS011;10094;48.820;9.226;2023-09-19T06:33:18;5.35;;;2.30;;
19863;SDS011;10094;48.820;9.226;2023-09-19T06:40:02;3.53;;;2.08;;
19863;SDS011;10094;48.820;9.226;2023-09-19T06:46:46;5.40;;;2.42;;
19863;SDS011;10094;48.820;9.226;2023-09-19T06:53:31;3.53;;;2.00;;
19863;SDS011;10094;48.820;9.226;2023-09-19T07:00:14;2.15;;;1.52;;
19863;SDS011;10094;48.820;9.226;2023-09-19T07:06:56;2.92;;;1.90;;
19863;SDS011;10094;48.820;9.226;2023-09-19T07:20:20;5.28;;;2.47;;
19863;SDS011;10094;48.820;9.226;2023-09-19T07:27:03;3.58;;;1.90;;
19863;SDS011;10094;48.820;9.226;2023-09-19T07:33:46;3.63;;;1.85;;
19863;SDS011;10094;48.820;9.226;2023-09-19T07:40:28;5.28;;;2.33;;
19863;SDS011;10094;48.820;9.226;2023-09-19T07:47:10;3.30;;;1.80;;
19863;SDS011;10094;48.820;9.226;2023-09-19T07:53:52;4.53;;;2.03;;
19863;SDS011;10094;48.820;9.226;2023-09-19T08:00:36;3.53;;;1.90;;
19863;SDS011;10094;48.820;9.226;2023-09-19T08:07:19;5.35;;;2.40;;
19863;SDS011;10094;48.820;9.226;2023-09-19T08:14:01;3.15;;;1.73;;
19863;SDS011;10094;48.820;9.226;2023-09-19T08:20:43;2.42;;;1.60;;
19863;SDS011;10094;48.820;9.226;2023-09-19T08:27:31;3.33;;;1.83;;
19863;SDS011;10094;48.820;9.226;2023-09-19T08:34:13;1.90;;;1.40;;
19863;SDS011;10094;48.820;9.226;2023-09-19T08:40:59;2.42;;;1.63;;
19863;SDS011;10094;48.820;9.226;2023-09-19T08:47:45;1.88;;;1.50;;
19863;SDS011;10094;48.820;9.226;2023-09-19T08:54:37;4.85;;;2.08;;
19863;SDS011;10094;48.820;9.226;2023-09-19T09:01:21;1.92;;;1.63;;
19863;SDS011;10094;48.820;9.226;2023-09-19T09:08:05;2.70;;;1.65;;
19863;SDS011;10094;48.820;9.226;2023-09-19T09:14:48;2.25;;;1.65;;
19863;SDS011;10094;48.820;9.226;2023-09-19T09:21:31;3.38;;;1.83;;
19863;SDS011;10094;48.820;9.226;2023-09-19T09:28:21;1.80;;;1.50;;
19863;SDS011;10094;48.820;9.226;2023-09-19T09:35:07;3.33;;;2.05;;
19863;SDS011;10094;48.820;9.226;2023-09-19T09:41:55;3.78;;;1.55;;
19863;SDS011;10094;48.820;9.226;2023-09-19T09:48:40;2.05;;;1.50;;
19863;SDS011;10094;48.820;9.226;2023-09-19T09:55:27;2.97;;;1.80;;
19863;SDS011;10094;48.820;9.226;2023-09-19T10:02:08;2.38;;;1.63;;
19863;SDS011;10094;48.820;9.226;2023-09-19T10:09:03;5.40;;;1.85;;
19863;SDS011;10094;48.820;9.226;2023-09-19T10:15:53;6.97;;;1.60;;
19863;SDS011;10094;48.820;9.226;2023-09-19T10:22:36;4.35;;;2.38;;
19863;SDS011;10094;48.820;9.226;2023-09-19T10:29:19;2.83;;;1.67;;
19863;SDS011;10094;48.820;9.226;2023-09-19T10:36:05;4.70;;;1.67;;
19863;SDS011;10094;48.820;9.226;2023-09-19T10:42:48;2.58;;;1.95;;
19863;SDS011;10094;48.820;9.226;2023-09-19T10:49:30;4.32;;;2.10;;
19863;SDS011;10094;48.820;9.226;2023-09-19T10:56:16;1.77;;;1.38;;
19863;SDS011;10094;48.820;9.226;2023-09-19T11:10:04;3.28;;;1.60;;
19863;SDS011;10094;48.820;9.226;2023-09-19T11:31:41;2.78;;;1.35;;
19863;SDS011;10094;48.820;9.226;2023-09-19T11:52:31;1.50;;;1.20;;
19863;SDS011;10094;48.820;9.226;2023-09-19T11:59:21;3.90;;;1.40;;
19863;SDS011;10094;48.820;9.226;2023-09-19T12:06:10;2.03;;;1.40;;
19863;SDS011;10094;48.820;9.226;2023-09-19T12:12:57;3.25;;;1.58;;
19863;SDS011;10094;48.820;9.226;2023-09-19T12:19:51;2.90;;;1.30;;
19863;SDS011;10094;48.820;9.226;2023-09-19T12:26:38;5.75;;;1.42;;
19863;SDS011;10094;48.820;9.226;2023-09-19T12:33:24;1.88;;;1.38;;
19863;SDS011;10094;48.820;9.226;2023-09-19T12:40:08;2.28;;;1.15;;
19863;SDS011;10094;48.820;9.226;2023-09-19T12:47:13;3.33;;;1.50;;
19863;SDS011;10094;48.820;9.226;2023-09-19T12:53:59;2.00;;;1.80;;
19863;SDS011;10094;48.820;9.226;2023-09-19T13:00:42;2.70;;;1.60;;
19863;SDS011;10094;48.820;9.226;2023-09-19T13:07:44;2.50;;;1.58;;
19863;SDS011;10094;48.820;9.226;2023-09-19T13:14:30;3.95;;;1.63;;
19863;SDS011;10094;48.820;9.226;2023-09-19T13:21:14;1.40;;;1.30;;
19863;SDS011;10094;48.820;9.226;2023-09-19T13:28:05;2.67;;;1.48;;
19863;SDS011;10094;48.820;9.226;2023-09-19T13:34:47;4.80;;;1.80;;
19863;SDS011;10094;48.820;9.226;2023-09-19T13:41:30;2.50;;;1.63;;
19863;SDS011;10094;48.820;9.226;2023-09-19T13:48:13;4.68;;;1.70;;
19863;SDS011;10094;48.820;9.226;2023-09-19T13:54:55;2.30;;;1.52;;
19863;SDS011;10094;48.820;9.226;2023-09-19T14:01:38;1.75;;;1.50;;
19863;SDS011;10094;48.820;9.226;2023-09-19T14:08:20;4.82;;;2.20;;
19863;SDS011;10094;48.820;9.226;2023-09-19T14:15:04;2.55;;;2.20;;
19863;SDS011;10094;48.820;9.226;2023-09-19T14:21:46;3.88;;;1.60;;
19863;SDS011;10094;48.820;9.226;2023-09-19T14:28:28;2.80;;;1.92;;
19863;SDS011;10094;48.820;9.226;2023-09-19T14:35:11;2.58;;;1.60;;
19863;SDS011;10094;48.820;9.226;2023-09-19T14:41:56;2.88;;;1.58;;
19863;SDS011;10094;48.820;9.226;2023-09-19T14:48:39;3.00;;;1.80;;
19863;SDS011;10094;48.820;9.226;2023-09-19T14:55:21;2.40;;;1.60;;
19863;SDS011;10094;48.820;9.226;2023-09-19T15:02:04;3.30;;;1.63;;
19863;SDS011;10094;48.820;9.226;2023-09-19T15:08:47;2.33;;;1.73;;
19863;SDS011;10094;48.820;9.226;2023-09-19T15:15:31;2.00;;;1.73;;
19863;SDS011;10094;48.820;9.226;2023-09-19T15:22:13;3.17;;;1.75;;
19863;SDS011;10094;48.820;9.226;2023-09-19T15:28:55;1.50;;;1.40;;
19863;SDS011;10094;48.820;9.226;2023-09-19T15:35:37;2.20;;;1.27;;
19863;SDS011;10094;48.820;9.226;2023-09-19T15:42:19;3.55;;;1.63;;
19863;SDS011;10094;48.820;9.226;2023-09-19T15:49:01;4.45;;;2.10;;
19863;SDS011;10094;48.820;9.226;2023-09-19T15:55:44;2.17;;;1.30;;
19863;SDS011;10094;48.820;9.226;2023-09-19T16:02:26;3.05;;;2.40;;
19863;SDS011;10094;48.820;9.226;2023-09-19T16:09:09;3.80;;;2.55;;
19863;SDS011;10094;48.820;9.226;2023-09-19T16:15:51;7.50;;;6.18;;
19863;SDS011;10094;48.820;9.226;2023-09-19T16:22:33;3.80;;;2.65;;
19863;SDS011;10094;48.820;9.226;2023-09-19T16:29:15;1.55;;;1.20;;
19863;SDS011;10094;48.820;9.226;2023-09-19T16:35:57;1.60;;;1.40;;
19863;SDS011;10094;48.820;9.226;2023-09-19T16:42:40;1.60;;;1.30;;
19863;SDS011;10094;48.820;9.226;2023-09-19T16:49:22;2.88;;;1.88;;
19863;SDS011;10094;48.820;9.226;2023-09-19T16:56:09;3.40;;;1.42;;
19863;SDS011;10094;48.820;9.226;2023-09-19T17:02:54;2.53;;;1.75;;
19863;SDS011;10094;48.820;9.226;2023-09-19T17:09:40;3.75;;;1.88;;
19863;SDS011;10094;48.820;9.226;2023-09-19T17:16:22;2.92;;;1.70;;
19863;SDS011;10094;48.820;9.226;2023-09-19T17:23:05;2.53;;;1.80;;
19863;SDS011;10094;48.820;9.226;2023-09-19T17:29:48;4.18;;;1.80;;
19863;SDS011;10094;48.820;9.226;2023-09-19T17:36:30;3.03;;;1.30;;
19863;SDS011;10094;48.820;9.226;2023-09-19T17:43:13;2.78;;;1.63;;
19863;SDS011;10094;48.820;9.226;2023-09-19T17:49:55;4.57;;;2.00;;
19863;SDS011;10094;48.820;9.226;2023-09-19T17:56:37;3.75;;;1.75;;
19863;SDS011;10094;48.820;9.226;2023-09-19T18:03:21;3.92;;;1.85;;
19863;SDS011;10094;48.820;9.226;2023-09-19T18:10:06;4.40;;;2.00;;
19863;SDS011;10094;48.820;9.226;2023-09-19T18:16:48;5.10;;;2.30;;
19863;SDS011;10094;48.820;9.226;2023-09-19T18:23:34;3.30;;;1.88;;
19863;SDS011;10094;48.820;9.226;2023-09-19T18:30:24;3.90;;;1.85;;
19863;SDS011;10094;48.820;9.226;2023-09-19T18:37:06;2.15;;;1.70;;
19863;SDS011;10094;48.820;9.226;2023-09-19T18:43:51;2.90;;;2.08;;
19863;SDS011;10094;48.820;9.226;2023-09-19T18:50:33;2.88;;;2.08;;
19863;SDS011;10094;48.820;9.226;2023-09-19T18:57:18;4.78;;;2.25;;
19863;SDS011;10094;48.820;9.226;2023-09-19T19:04:00;3.33;;;2.20;;
19863;SDS011;10094;48.820;9.226;2023-09-19T19:10:42;3.22;;;2.53;;
19863;SDS011;10094;48.820;9.226;2023-09-19T19:17:24;5.15;;;2.42;;
19863;SDS011;10094;48.820;9.226;2023-09-19T19:24:06;2.83;;;1.88;;
19863;SDS011;10094;48.820;9.226;2023-09-19T19:30:48;6.15;;;2.55;;
19863;SDS011;10094;48.820;9.226;2023-09-19T19:37:30;4.65;;;2.17;;
19863;SDS011;10094;48.820;9.226;2023-09-19T19:44:12;4.63;;;2.10;;
19863;SDS011;10094;48.820;9.226;2023-09-19T19:50:54;5.00;;;2.85;;
19863;SDS011;10094;48.820;9.226;2023-09-19T19:57:36;5.22;;;3.00;;
19863;SDS011;10094;48.820;9.226;2023-09-19T20:04:18;5.40;;;3.05;;
19863;SDS011;10094;48.820;9.226;2023-09-19T20:11:03;5.32;;;3.60;;
19863;SDS011;10094;48.820;9.226;2023-09-19T20:17:45;5.60;;;3.67;;
19863;SDS011;10094;48.820;9.226;2023-09-19T20:24:27;4.55;;;3.45;;
19863;SDS011;10094;48.820;9.226;2023-09-19T20:31:09;5.53;;;3.65;;
19863;SDS011;10094;48.820;9.226;2023-09-19T20:37:52;5.22;;;3.72;;
19863;SDS011;10094;48.820;9.226;2023-09-19T20:44:36;7.40;;;3.50;;
19863;SDS011;10094;48.820;9.226;2023-09-19T20:51:18;6.07;;;3.42;;
19863;SDS011;10094;48.820;9.226;2023-09-19T20:58:06;7.50;;;4.00;;
19863;SDS011;10094;48.820;9.226;2023-09-19T21:04:48;4.38;;;3.58;;
19863;SDS011;10094;48.820;9.226;2023-09-19T21:11:31;5.10;;;3.33;;
19863;SDS011;10094;48.820;9.226;2023-09-19T21:18:13;5.07;;;3.30;;
19863;SDS011;10094;48.820;9.226;2023-09-19T21:24:55;6.93;;;3.60;;
19863;SDS011;10094;48.820;9.226;2023-09-19T21:31:36;5.03;;;3.08;;
19863;SDS011;10094;48.820;9.226;2023-09-19T21:38:18;4.25;;;3.15;;
19863;SDS011;10094;48.820;9.226;2023-09-19T21:45:00;6.18;;;3.35;;
19863;SDS011;10094;48.820;9.226;2023-09-19T21:51:42;8.68;;;3.25;;
19863;SDS011;10094;48.820;9.226;2023-09-19T21:58:24;5.90;;;3.55;;
19863;SDS011;10094;48.820;9.226;2023-09-19T22:05:05;4.22;;;3.00;;
19863;SDS011;10094;48.820;9.226;2023-09-19T22:11:49;4.57;;;3.40;;
19863;SDS011;10094;48.820;9.226;2023-09-19T22:18:32;3.25;;;2.83;;
19863;SDS011;10094;48.820;9.226;2023-09-19T22:25:14;3.42;;;2.83;;
19863;SDS011;10094;48.820;9.226;2023-09-19T22:31:59;5.80;;;3.10;;
19863;SDS011;10094;48.820;9.226;2023-09-19T22:38:41;7.78;;;3.10;;
19863;SDS011;10094;48.820;9.226;2023-09-19T22:45:23;4.30;;;3.17;;
19863;SDS011;10094;48.820;9.226;2023-09-19T22:52:07;4.65;;;2.90;;
19863;SDS011;10094;48.820;9.226;2023-09-19T22:58:50;3.08;;;2.78;;
19863;SDS011;10094;48.820;9.226;2023-09-19T23:05:35;6.13;;;3.30;;
19863;SDS011;10094;48.820;9.226;2023-09-19T23:12:19;4.05;;;3.05;;
19863;SDS011;10094;48.820;9.226;2023-09-19T23:19:04;2.90;;;2.60;;
19863;SDS011;10094;48.820;9.226;2023-09-19T23:25:56;7.18;;;3.10;;
19863;SDS011;10094;48.820;9.226;2023-09-19T23:32:38;4.78;;;2.85;;
19863;SDS011;10094;48.820;9.226;2023-09-19T23:39:20;4.95;;;2.60;;
19863;SDS011;10094;48.820;9.226;2023-09-19T23:46:02;5.60;;;2.75;;
19863;SDS011;10094;48.820;9.226;2023-09-19T23:52:46;3.55;;;2.83;;
19863;SDS011;10094;48.820;9.226;2023-09-19T23:59:28;5.05;;;2.60;;
